Chattaroy, Washington
Current Conditions -  °F | °C
As of 12:53 AM on Friday 31 Oct 2014 (Local Time) from KDEW Reporting Station
Few Clouds Few Clouds  
Wind Chill: 51°   Ceiling: Unl
Heat Index: 51°   Visibility: 10mi
Dew Point: 43°   Wind: 8mph
Humidity: 74%   Direction: 20°NNE
Pressure: 29.79"   Gusts: NA
Location:  47.89°N, 117.36°W
Report Text: KDEW 310753Z AUTO 02007KT 10SM FEW120 11/06 A2979 RMK AO2 SLP088 T01060061 401220072
Loading
Personal Weather Stations






























Interactive Weather Map New forecast layout! Learn more

10-Day Weather Forecast

Advertisements
Track Severe Weather on mobile